sensor_id;sensor_type;location;lat;lon;timestamp;temperature;humidity
2439;DHT22;14509;47.992;7.848;2022-11-20T01:29:26;12.30;55.70
2439;DHT22;14509;47.992;7.848;2022-11-20T01:31:30;12.20;55.50
2439;DHT22;14509;47.992;7.848;2022-11-20T01:33:32;12.20;55.60
2439;DHT22;14509;47.992;7.848;2022-11-20T01:35:34;12.30;55.40
2439;DHT22;14509;47.992;7.848;2022-11-20T01:37:36;12.60;55.60
2439;DHT22;14509;47.992;7.848;2022-11-20T01:39:38;12.30;55.30
2439;DHT22;14509;47.992;7.848;2022-11-20T01:41:40;12.30;55.30
2439;DHT22;14509;47.992;7.848;2022-11-20T01:44:00;12.40;55.40
2439;DHT22;14509;47.992;7.848;2022-11-20T01:46:06;12.40;55.20
2439;DHT22;14509;47.992;7.848;2022-11-20T01:48:08;12.40;55.20
2439;DHT22;14509;47.992;7.848;2022-11-20T01:50:15;12.40;55.10
2439;DHT22;14509;47.992;7.848;2022-11-20T01:52:20;12.40;55.20
2439;DHT22;14509;47.992;7.848;2022-11-20T01:54:28;12.60;55.40
2439;DHT22;14509;47.992;7.848;2022-11-20T01:56:38;12.40;55.70
2439;DHT22;14509;47.992;7.848;2022-11-20T01:58:43;12.80;55.40
2439;DHT22;14509;47.992;7.848;2022-11-20T02:00:46;12.40;55.20
2439;DHT22;14509;47.992;7.848;2022-11-20T02:02:53;12.40;55.10
2439;DHT22;14509;47.992;7.848;2022-11-20T02:05:00;12.40;55.20
2439;DHT22;14509;47.992;7.848;2022-11-20T02:07:05;12.40;55.20
2439;DHT22;14509;47.992;7.848;2022-11-20T02:09:07;12.40;55.20
2439;DHT22;14509;47.992;7.848;2022-11-20T02:11:09;12.40;55.10
2439;DHT22;14509;47.992;7.848;2022-11-20T02:13:13;12.40;55.10
2439;DHT22;14509;47.992;7.848;2022-11-20T02:15:34;12.40;54.80
2439;DHT22;14509;47.992;7.848;2022-11-20T02:17:36;12.30;54.70
2439;DHT22;14509;47.992;7.848;2022-11-20T02:19:40;12.30;54.50
2439;DHT22;14509;47.992;7.848;2022-11-20T02:21:47;12.30;54.40
2439;DHT22;14509;47.992;7.848;2022-11-20T02:24:10;12.40;54.60
2439;DHT22;14509;47.992;7.848;2022-11-20T02:26:14;12.40;54.50
2439;DHT22;14509;47.992;7.848;2022-11-20T02:28:18;12.20;54.80
2439;DHT22;14509;47.992;7.848;2022-11-20T02:30:20;12.30;54.90
2439;DHT22;14509;47.992;7.848;2022-11-20T02:32:24;12.30;54.90
2439;DHT22;14509;47.992;7.848;2022-11-20T02:34:26;12.30;54.90
2439;DHT22;14509;47.992;7.848;2022-11-20T02:36:30;12.40;55.00
2439;DHT22;14509;47.992;7.848;2022-11-20T02:38:33;12.40;54.90
2439;DHT22;14509;47.992;7.848;2022-11-20T02:40:36;12.20;54.20
2439;DHT22;14509;47.992;7.848;2022-11-20T02:42:38;12.40;54.70
2439;DHT22;14509;47.992;7.848;2022-11-20T02:44:41;12.30;55.10
2439;DHT22;14509;47.992;7.848;2022-11-20T02:46:42;12.30;54.50
2439;DHT22;14509;47.992;7.848;2022-11-20T02:48:44;12.30;54.70
2439;DHT22;14509;47.992;7.848;2022-11-20T02:50:46;12.30;54.70
2439;DHT22;14509;47.992;7.848;2022-11-20T02:52:48;12.30;54.70
2439;DHT22;14509;47.992;7.848;2022-11-20T02:54:50;12.30;54.70
2439;DHT22;14509;47.992;7.848;2022-11-20T02:56:53;12.30;54.70
2439;DHT22;14509;47.992;7.848;2022-11-20T02:58:55;12.30;54.80
2439;DHT22;14509;47.992;7.848;2022-11-20T03:00:57;12.20;54.40
2439;DHT22;14509;47.992;7.848;2022-11-20T03:02:59;12.20;54.40
2439;DHT22;14509;47.992;7.848;2022-11-20T03:05:01;12.20;54.20
2439;DHT22;14509;47.992;7.848;2022-11-20T03:07:03;12.20;54.10
2439;DHT22;14509;47.992;7.848;2022-11-20T03:09:05;12.10;54.30
2439;DHT22;14509;47.992;7.848;2022-11-20T03:11:08;12.10;54.30
2439;DHT22;14509;47.992;7.848;2022-11-20T03:13:11;12.10;54.50
2439;DHT22;14509;47.992;7.848;2022-11-20T03:15:13;12.10;54.50
2439;DHT22;14509;47.992;7.848;2022-11-20T03:17:16;12.10;54.40
2439;DHT22;14509;47.992;7.848;2022-11-20T03:19:18;12.10;54.30
2439;DHT22;14509;47.992;7.848;2022-11-20T03:21:19;12.20;54.20
2439;DHT22;14509;47.992;7.848;2022-11-20T03:23:21;12.10;54.20
2439;DHT22;14509;47.992;7.848;2022-11-20T03:25:23;12.10;54.20
2439;DHT22;14509;47.992;7.848;2022-11-20T03:27:25;12.10;54.00
2439;DHT22;14509;47.992;7.848;2022-11-20T03:29:28;12.10;54.20
2439;DHT22;14509;47.992;7.848;2022-11-20T03:31:32;12.00;54.20
2439;DHT22;14509;47.992;7.848;2022-11-20T03:33:34;12.00;54.10
2439;DHT22;14509;47.992;7.848;2022-11-20T03:35:36;12.10;54.30
2439;DHT22;14509;47.992;7.848;2022-11-20T03:37:38;12.30;54.60
2439;DHT22;14509;47.992;7.848;2022-11-20T03:39:40;12.10;54.40
2439;DHT22;14509;47.992;7.848;2022-11-20T03:41:42;12.10;54.30
2439;DHT22;14509;47.992;7.848;2022-11-20T03:43:47;12.20;54.20
2439;DHT22;14509;47.992;7.848;2022-11-20T03:45:50;12.20;54.20
2439;DHT22;14509;47.992;7.848;2022-11-20T03:47:52;12.20;54.00
2439;DHT22;14509;47.992;7.848;2022-11-20T03:49:53;12.30;53.90
2439;DHT22;14509;47.992;7.848;2022-11-20T03:51:55;12.20;53.80
2439;DHT22;14509;47.992;7.848;2022-11-20T03:53:59;12.30;53.70
2439;DHT22;14509;47.992;7.848;2022-11-20T03:56:01;12.30;53.60
2439;DHT22;14509;47.992;7.848;2022-11-20T03:58:03;12.40;53.60
2439;DHT22;14509;47.992;7.848;2022-11-20T04:00:06;12.30;53.60
2439;DHT22;14509;47.992;7.848;2022-11-20T04:02:09;12.40;53.50
2439;DHT22;14509;47.992;7.848;2022-11-20T04:04:11;12.60;53.70
2439;DHT22;14509;47.992;7.848;2022-11-20T04:06:14;12.30;53.30
2439;DHT22;14509;47.992;7.848;2022-11-20T04:08:17;12.30;53.60
2439;DHT22;14509;47.992;7.848;2022-11-20T04:10:19;12.40;53.40
2439;DHT22;14509;47.992;7.848;2022-11-20T04:12:21;12.50;53.70
2439;DHT22;14509;47.992;7.848;2022-11-20T04:14:23;12.20;53.70
2439;DHT22;14509;47.992;7.848;2022-11-20T04:16:26;12.20;53.60
2439;DHT22;14509;47.992;7.848;2022-11-20T04:18:29;12.30;53.70
2439;DHT22;14509;47.992;7.848;2022-11-20T04:20:31;12.30;53.50
2439;DHT22;14509;47.992;7.848;2022-11-20T04:22:33;12.50;53.70
2439;DHT22;14509;47.992;7.848;2022-11-20T04:24:35;12.40;53.40
2439;DHT22;14509;47.992;7.848;2022-11-20T04:26:37;12.40;53.10
2439;DHT22;14509;47.992;7.848;2022-11-20T04:28:40;12.40;53.60
2439;DHT22;14509;47.992;7.848;2022-11-20T04:30:42;12.40;52.40
2439;DHT22;14509;47.992;7.848;2022-11-20T04:32:44;12.40;52.60
2439;DHT22;14509;47.992;7.848;2022-11-20T04:34:47;12.30;52.40
2439;DHT22;14509;47.992;7.848;2022-11-20T04:36:49;12.30;52.70
2439;DHT22;14509;47.992;7.848;2022-11-20T04:38:52;12.20;52.80
2439;DHT22;14509;47.992;7.848;2022-11-20T04:40:56;12.20;52.80
2439;DHT22;14509;47.992;7.848;2022-11-20T04:42:59;12.30;52.80
2439;DHT22;14509;47.992;7.848;2022-11-20T04:45:01;12.30;52.60
2439;DHT22;14509;47.992;7.848;2022-11-20T04:47:03;12.40;52.40
2439;DHT22;14509;47.992;7.848;2022-11-20T04:49:05;12.30;52.40
2439;DHT22;14509;47.992;7.848;2022-11-20T04:51:09;12.20;52.40
2439;DHT22;14509;47.992;7.848;2022-11-20T04:53:11;12.60;52.70
2439;DHT22;14509;47.992;7.848;2022-11-20T04:55:13;12.20;52.50
2439;DHT22;14509;47.992;7.848;2022-11-20T04:57:15;12.30;52.60
2439;DHT22;14509;47.992;7.848;2022-11-20T04:59:17;12.30;52.60
2439;DHT22;14509;47.992;7.848;2022-11-20T05:01:20;12.50;52.80
2439;DHT22;14509;47.992;7.848;2022-11-20T05:03:22;12.30;52.70
2439;DHT22;14509;47.992;7.848;2022-11-20T05:05:25;12.30;52.60
2439;DHT22;14509;47.992;7.848;2022-11-20T05:07:28;12.30;52.50
2439;DHT22;14509;47.992;7.848;2022-11-20T05:09:30;12.30;52.40
2439;DHT22;14509;47.992;7.848;2022-11-20T05:11:32;12.30;52.20
2439;DHT22;14509;47.992;7.848;2022-11-20T05:13:34;12.20;52.00
2439;DHT22;14509;47.992;7.848;2022-11-20T05:15:36;12.20;52.10
2439;DHT22;14509;47.992;7.848;2022-11-20T05:17:38;12.20;52.20
2439;DHT22;14509;47.992;7.848;2022-11-20T05:19:40;12.20;52.20
2439;DHT22;14509;47.992;7.848;2022-11-20T05:21:42;12.50;52.50
2439;DHT22;14509;47.992;7.848;2022-11-20T05:23:46;12.60;52.60
2439;DHT22;14509;47.992;7.848;2022-11-20T05:25:48;12.50;52.60
2439;DHT22;14509;47.992;7.848;2022-11-20T05:27:53;12.20;52.40
2439;DHT22;14509;47.992;7.848;2022-11-20T05:29:55;12.30;52.70
2439;DHT22;14509;47.992;7.848;2022-11-20T05:31:57;12.20;52.60
2439;DHT22;14509;47.992;7.848;2022-11-20T05:33:59;12.30;52.80
2439;DHT22;14509;47.992;7.848;2022-11-20T05:36:01;12.30;52.80
2439;DHT22;14509;47.992;7.848;2022-11-20T05:38:02;12.30;52.80
2439;DHT22;14509;47.992;7.848;2022-11-20T05:40:07;12.30;52.90
2439;DHT22;14509;47.992;7.848;2022-11-20T05:42:10;12.30;53.00
2439;DHT22;14509;47.992;7.848;2022-11-20T05:44:29;12.30;52.90
2439;DHT22;14509;47.992;7.848;2022-11-20T05:46:31;12.30;53.00
2439;DHT22;14509;47.992;7.848;2022-11-20T05:48:33;12.30;53.10
2439;DHT22;14509;47.992;7.848;2022-11-20T05:50:36;12.30;53.30
2439;DHT22;14509;47.992;7.848;2022-11-20T05:52:37;12.30;53.30
2439;DHT22;14509;47.992;7.848;2022-11-20T05:54:39;12.30;53.40
2439;DHT22;14509;47.992;7.848;2022-11-20T05:56:43;12.30;53.40
2439;DHT22;14509;47.992;7.848;2022-11-20T05:58:45;12.30;53.40
2439;DHT22;14509;47.992;7.848;2022-11-20T06:00:47;12.20;53.50
2439;DHT22;14509;47.992;7.848;2022-11-20T06:02:49;12.00;53.30
2439;DHT22;14509;47.992;7.848;2022-11-20T06:04:50;12.50;53.70
2439;DHT22;14509;47.992;7.848;2022-11-20T06:06:52;12.20;53.30
2439;DHT22;14509;47.992;7.848;2022-11-20T06:08:55;12.20;53.40
2439;DHT22;14509;47.992;7.848;2022-11-20T06:11:03;12.30;53.50
2439;DHT22;14509;47.992;7.848;2022-11-20T06:13:07;12.30;53.60
2439;DHT22;14509;47.992;7.848;2022-11-20T06:15:09;12.30;53.50
2439;DHT22;14509;47.992;7.848;2022-11-20T06:17:11;12.40;53.50
2439;DHT22;14509;47.992;7.848;2022-11-20T06:19:13;12.40;53.50
2439;DHT22;14509;47.992;7.848;2022-11-20T06:21:17;12.40;53.50
2439;DHT22;14509;47.992;7.848;2022-11-20T06:23:19;12.30;53.60
2439;DHT22;14509;47.992;7.848;2022-11-20T06:25:21;12.30;53.70
2439;DHT22;14509;47.992;7.848;2022-11-20T06:27:23;12.30;53.70
2439;DHT22;14509;47.992;7.848;2022-11-20T06:29:26;12.30;53.70
2439;DHT22;14509;47.992;7.848;2022-11-20T06:31:29;12.20;53.70
2439;DHT22;14509;47.992;7.848;2022-11-20T06:33:33;12.20;54.10
2439;DHT22;14509;47.992;7.848;2022-11-20T06:35:35;12.20;54.60
2439;DHT22;14509;47.992;7.848;2022-11-20T06:37:37;12.30;55.00
2439;DHT22;14509;47.992;7.848;2022-11-20T06:39:39;12.00;55.10
2439;DHT22;14509;47.992;7.848;2022-11-20T06:41:41;12.00;55.20
2439;DHT22;14509;47.992;7.848;2022-11-20T06:43:43;12.20;55.50
2439;DHT22;14509;47.992;7.848;2022-11-20T06:45:46;11.90;55.40
2439;DHT22;14509;47.992;7.848;2022-11-20T06:47:52;11.90;55.40
2439;DHT22;14509;47.992;7.848;2022-11-20T06:49:54;12.00;55.40
2439;DHT22;14509;47.992;7.848;2022-11-20T06:51:56;12.00;55.40
2439;DHT22;14509;47.992;7.848;2022-11-20T06:53:58;11.90;55.20
2439;DHT22;14509;47.992;7.848;2022-11-20T06:56:01;11.90;55.30
2439;DHT22;14509;47.992;7.848;2022-11-20T06:58:03;11.90;55.40
2439;DHT22;14509;47.992;7.848;2022-11-20T07:00:06;12.00;55.30
2439;DHT22;14509;47.992;7.848;2022-11-20T07:02:10;12.00;55.30
2439;DHT22;14509;47.992;7.848;2022-11-20T07:04:13;12.10;55.80
2439;DHT22;14509;47.992;7.848;2022-11-20T07:06:15;12.10;55.10
2439;DHT22;14509;47.992;7.848;2022-11-20T07:08:17;12.10;54.80
2439;DHT22;14509;47.992;7.848;2022-11-20T07:10:19;12.10;54.80
2439;DHT22;14509;47.992;7.848;2022-11-20T07:12:20;12.10;54.80
2439;DHT22;14509;47.992;7.848;2022-11-20T07:14:22;12.20;54.70
2439;DHT22;14509;47.992;7.848;2022-11-20T07:16:24;12.20;54.70
2439;DHT22;14509;47.992;7.848;2022-11-20T07:18:28;12.20;54.30
2439;DHT22;14509;47.992;7.848;2022-11-20T07:20:30;12.20;54.20
2439;DHT22;14509;47.992;7.848;2022-11-20T07:22:32;12.20;54.20
2439;DHT22;14509;47.992;7.848;2022-11-20T07:24:34;12.40;54.20
2439;DHT22;14509;47.992;7.848;2022-11-20T08:23:36;12.00;55.70
2439;DHT22;14509;47.992;7.848;2022-11-20T08:25:38;12.20;55.70
2439;DHT22;14509;47.992;7.848;2022-11-20T08:27:40;12.10;55.40
2439;DHT22;14509;47.992;7.848;2022-11-20T08:29:42;12.20;55.40
2439;DHT22;14509;47.992;7.848;2022-11-20T08:31:44;12.30;55.30
2439;DHT22;14509;47.992;7.848;2022-11-20T08:33:46;12.40;55.10
2439;DHT22;14509;47.992;7.848;2022-11-20T08:35:48;12.40;54.80
2439;DHT22;14509;47.992;7.848;2022-11-20T08:37:50;12.40;54.50
2439;DHT22;14509;47.992;7.848;2022-11-20T08:39:54;12.40;54.50
2439;DHT22;14509;47.992;7.848;2022-11-20T08:41:59;12.70;54.80
2439;DHT22;14509;47.992;7.848;2022-11-20T08:44:03;12.50;54.40
2439;DHT22;14509;47.992;7.848;2022-11-20T08:46:07;12.60;54.40
2439;DHT22;14509;47.992;7.848;2022-11-20T08:48:09;12.70;54.30
2439;DHT22;14509;47.992;7.848;2022-11-20T08:50:11;12.70;53.80
2439;DHT22;14509;47.992;7.848;2022-11-20T08:52:14;12.80;53.90
2439;DHT22;14509;47.992;7.848;2022-11-20T08:54:16;12.90;53.80
2439;DHT22;14509;47.992;7.848;2022-11-20T08:56:21;12.90;53.20
2439;DHT22;14509;47.992;7.848;2022-11-20T08:58:24;13.00;53.20
2439;DHT22;14509;47.992;7.848;2022-11-20T09:00:27;13.10;53.20
2439;DHT22;14509;47.992;7.848;2022-11-20T09:02:29;13.10;52.90
2439;DHT22;14509;47.992;7.848;2022-11-20T09:06:33;13.20;52.80
2439;DHT22;14509;47.992;7.848;2022-11-20T09:08:35;13.10;52.40
2439;DHT22;14509;47.992;7.848;2022-11-20T09:10:38;13.10;52.50
2439;DHT22;14509;47.992;7.848;2022-11-20T09:12:42;13.10;52.50
2439;DHT22;14509;47.992;7.848;2022-11-20T09:14:44;13.10;52.30
2439;DHT22;14509;47.992;7.848;2022-11-20T09:16:46;13.10;52.30
2439;DHT22;14509;47.992;7.848;2022-11-20T09:18:50;13.00;52.40
2439;DHT22;14509;47.992;7.848;2022-11-20T09:20:55;13.00;52.60
2439;DHT22;14509;47.992;7.848;2022-11-20T09:22:59;13.00;52.60
2439;DHT22;14509;47.992;7.848;2022-11-20T09:25:01;13.20;52.70
2439;DHT22;14509;47.992;7.848;2022-11-20T09:27:04;13.00;52.50
2439;DHT22;14509;47.992;7.848;2022-11-20T09:29:09;13.20;52.70
2439;DHT22;14509;47.992;7.848;2022-11-20T09:31:19;13.10;52.70
2439;DHT22;14509;47.992;7.848;2022-11-20T09:33:23;13.10;52.70
2439;DHT22;14509;47.992;7.848;2022-11-20T09:35:25;13.20;52.70
2439;DHT22;14509;47.992;7.848;2022-11-20T09:37:27;13.10;52.60
2439;DHT22;14509;47.992;7.848;2022-11-20T09:39:29;13.20;52.80
2439;DHT22;14509;47.992;7.848;2022-11-20T09:41:42;13.20;52.60
2439;DHT22;14509;47.992;7.848;2022-11-20T09:43:53;13.30;52.60
2439;DHT22;14509;47.992;7.848;2022-11-20T09:46:11;13.30;52.40
2439;DHT22;14509;47.992;7.848;2022-11-20T09:48:27;13.40;52.30
2439;DHT22;14509;47.992;7.848;2022-11-20T09:50:32;13.40;52.10
2439;DHT22;14509;47.992;7.848;2022-11-20T09:52:41;13.50;52.20
2439;DHT22;14509;47.992;7.848;2022-11-20T09:54:47;13.60;52.20
2439;DHT22;14509;47.992;7.848;2022-11-20T09:56:51;13.80;52.00
2439;DHT22;14509;47.992;7.848;2022-11-20T09:58:59;14.00;52.10
2439;DHT22;14509;47.992;7.848;2022-11-20T10:01:10;13.90;51.90
2439;DHT22;14509;47.992;7.848;2022-11-20T10:03:17;14.10;51.40
2439;DHT22;14509;47.992;7.848;2022-11-20T10:05:24;14.30;51.40
2439;DHT22;14509;47.992;7.848;2022-11-20T10:07:32;14.20;51.00
2439;DHT22;14509;47.992;7.848;2022-11-20T10:09:40;14.30;50.80
2439;DHT22;14509;47.992;7.848;2022-11-20T10:11:52;14.20;50.10
2439;DHT22;14509;47.992;7.848;2022-11-20T10:14:07;14.60;50.10
2439;DHT22;14509;47.992;7.848;2022-11-20T10:16:36;14.30;50.10
2439;DHT22;14509;47.992;7.848;2022-11-20T10:19:11;14.30;50.10
2439;DHT22;14509;47.992;7.848;2022-11-20T10:21:26;14.60;50.40
2439;DHT22;14509;47.992;7.848;2022-11-20T10:23:45;14.50;50.00
2439;DHT22;14509;47.992;7.848;2022-11-20T10:25:56;14.50;50.10
2439;DHT22;14509;47.992;7.848;2022-11-20T10:28:19;14.60;49.80
2439;DHT22;14509;47.992;7.848;2022-11-20T10:30:31;14.50;49.70
2439;DHT22;14509;47.992;7.848;2022-11-20T10:32:56;14.50;49.60
2439;DHT22;14509;47.992;7.848;2022-11-20T10:35:05;14.60;49.80
2439;DHT22;14509;47.992;7.848;2022-11-20T10:37:15;14.40;49.70
2439;DHT22;14509;47.992;7.848;2022-11-20T10:39:31;14.30;49.30
2439;DHT22;14509;47.992;7.848;2022-11-20T10:41:38;14.40;49.80
2439;DHT22;14509;47.992;7.848;2022-11-20T10:43:42;14.30;50.00
2439;DHT22;14509;47.992;7.848;2022-11-20T10:45:50;14.20;50.10
2439;DHT22;14509;47.992;7.848;2022-11-20T10:48:09;14.30;49.90
2439;DHT22;14509;47.992;7.848;2022-11-20T10:50:18;14.40;49.90
2439;DHT22;14509;47.992;7.848;2022-11-20T10:52:28;14.50;49.70
2439;DHT22;14509;47.992;7.848;2022-11-20T10:54:40;14.50;49.30
2439;DHT22;14509;47.992;7.848;2022-11-20T10:56:47;14.60;49.40
2439;DHT22;14509;47.992;7.848;2022-11-20T10:59:00;14.70;49.30
2439;DHT22;14509;47.992;7.848;2022-11-20T11:01:04;14.70;49.10
2439;DHT22;14509;47.992;7.848;2022-11-20T11:03:20;14.80;48.80
2439;DHT22;14509;47.992;7.848;2022-11-20T11:05:34;14.80;48.80
2439;DHT22;14509;47.992;7.848;2022-11-20T11:07:39;14.80;48.40
2439;DHT22;14509;47.992;7.848;2022-11-20T11:09:44;14.70;48.40
2439;DHT22;14509;47.992;7.848;2022-11-20T11:11:48;14.80;48.40
2439;DHT22;14509;47.992;7.848;2022-11-20T11:13:51;14.90;48.30
2439;DHT22;14509;47.992;7.848;2022-11-20T11:15:53;14.90;48.30
2439;DHT22;14509;47.992;7.848;2022-11-20T11:17:56;15.10;48.20
2439;DHT22;14509;47.992;7.848;2022-11-20T11:20:03;15.40;48.10
2439;DHT22;14509;47.992;7.848;2022-11-20T11:22:11;15.20;47.80
2439;DHT22;14509;47.992;7.848;2022-11-20T11:24:21;15.40;48.00
2439;DHT22;14509;47.992;7.848;2022-11-20T11:26:24;15.10;47.70
2439;DHT22;14509;47.992;7.848;2022-11-20T11:28:26;15.00;47.40
2439;DHT22;14509;47.992;7.848;2022-11-20T11:30:40;14.90;47.40
2439;DHT22;14509;47.992;7.848;2022-11-20T11:32:43;14.60;47.70
2439;DHT22;14509;47.992;7.848;2022-11-20T11:34:57;14.40;48.00
2439;DHT22;14509;47.992;7.848;2022-11-20T11:37:02;14.30;48.40
2439;DHT22;14509;47.992;7.848;2022-11-20T11:39:10;14.20;48.40
2439;DHT22;14509;47.992;7.848;2022-11-20T11:41:17;14.20;48.60
2439;DHT22;14509;47.992;7.848;2022-11-20T11:43:23;14.10;48.60
2439;DHT22;14509;47.992;7.848;2022-11-20T11:45:52;14.10;48.70
2439;DHT22;14509;47.992;7.848;2022-11-20T11:47:56;14.00;48.80
2439;DHT22;14509;47.992;7.848;2022-11-20T11:50:13;14.00;48.80
2439;DHT22;14509;47.992;7.848;2022-11-20T11:52:20;14.00;48.60
2439;DHT22;14509;47.992;7.848;2022-11-20T11:54:27;14.00;48.50
2439;DHT22;14509;47.992;7.848;2022-11-20T11:56:30;14.30;48.70
2439;DHT22;14509;47.992;7.848;2022-11-20T11:58:41;14.10;48.40
2439;DHT22;14509;47.992;7.848;2022-11-20T12:00:54;14.10;48.00
2439;DHT22;14509;47.992;7.848;2022-11-20T12:03:04;14.10;47.80
2439;DHT22;14509;47.992;7.848;2022-11-20T12:05:17;14.20;47.80
2439;DHT22;14509;47.992;7.848;2022-11-20T12:07:30;14.30;47.70
2439;DHT22;14509;47.992;7.848;2022-11-20T12:09:41;14.40;47.20
2439;DHT22;14509;47.992;7.848;2022-11-20T12:11:51;14.50;46.50
2439;DHT22;14509;47.992;7.848;2022-11-20T12:13:58;14.60;46.20
2439;DHT22;14509;47.992;7.848;2022-11-20T12:16:07;14.60;46.20
2439;DHT22;14509;47.992;7.848;2022-11-20T12:18:15;14.80;45.90
2439;DHT22;14509;47.992;7.848;2022-11-20T12:20:20;15.00;45.10
2439;DHT22;14509;47.992;7.848;2022-11-20T12:22:31;15.10;44.80
2439;DHT22;14509;47.992;7.848;2022-11-20T12:24:47;15.30;43.90
2439;DHT22;14509;47.992;7.848;2022-11-20T12:27:01;15.40;42.60
2439;DHT22;14509;47.992;7.848;2022-11-20T12:29:11;15.50;42.50
2439;DHT22;14509;47.992;7.848;2022-11-20T12:31:42;15.50;42.60
2439;DHT22;14509;47.992;7.848;2022-11-20T12:33:56;15.50;42.80
2439;DHT22;14509;47.992;7.848;2022-11-20T12:36:13;15.60;43.10
2439;DHT22;14509;47.992;7.848;2022-11-20T12:41:00;15.70;43.40
2439;DHT22;14509;47.992;7.848;2022-11-20T12:43:13;15.70;43.10
2439;DHT22;14509;47.992;7.848;2022-11-20T12:46:02;15.70;43.10
2439;DHT22;14509;47.992;7.848;2022-11-20T12:48:38;15.70;43.10
2439;DHT22;14509;47.992;7.848;2022-11-20T12:50:49;15.60;43.40
2439;DHT22;14509;47.992;7.848;2022-11-20T12:52:56;15.50;43.40
2439;DHT22;14509;47.992;7.848;2022-11-20T12:55:23;15.30;43.60
2439;DHT22;14509;47.992;7.848;2022-11-20T12:57:36;15.10;44.00
2439;DHT22;14509;47.992;7.848;2022-11-20T12:59:57;15.10;44.40
2439;DHT22;14509;47.992;7.848;2022-11-20T13:02:12;14.70;44.50
2439;DHT22;14509;47.992;7.848;2022-11-20T13:04:44;14.60;44.80
2439;DHT22;14509;47.992;7.848;2022-11-20T13:06:50;14.50;45.30
2439;DHT22;14509;47.992;7.848;2022-11-20T13:08:54;14.60;45.80
2439;DHT22;14509;47.992;7.848;2022-11-20T13:11:03;14.40;46.10
2439;DHT22;14509;47.992;7.848;2022-11-20T13:13:14;14.50;45.60
2439;DHT22;14509;47.992;7.848;2022-11-20T13:15:32;14.70;45.40
2439;DHT22;14509;47.992;7.848;2022-11-20T13:17:40;14.80;45.00
2439;DHT22;14509;47.992;7.848;2022-11-20T13:19:47;14.80;43.70
2439;DHT22;14509;47.992;7.848;2022-11-20T13:21:51;14.90;43.70
2439;DHT22;14509;47.992;7.848;2022-11-20T13:24:04;14.90;42.80
2439;DHT22;14509;47.992;7.848;2022-11-20T13:26:16;14.90;43.20
2439;DHT22;14509;47.992;7.848;2022-11-20T13:28:27;14.90;43.30
2439;DHT22;14509;47.992;7.848;2022-11-20T13:30:31;14.80;43.10
2439;DHT22;14509;47.992;7.848;2022-11-20T13:32:33;14.80;43.10
2439;DHT22;14509;47.992;7.848;2022-11-20T13:34:35;14.70;43.20
2439;DHT22;14509;47.992;7.848;2022-11-20T18:23:02;11.00;54.70
2439;DHT22;14509;47.992;7.848;2022-11-20T18:25:05;10.90;55.20
2439;DHT22;14509;47.992;7.848;2022-11-20T18:27:13;10.70;55.70
2439;DHT22;14509;47.992;7.848;2022-11-20T18:29:15;10.60;55.90
2439;DHT22;14509;47.992;7.848;2022-11-20T18:31:18;10.60;56.10
2439;DHT22;14509;47.992;7.848;2022-11-20T18:33:21;10.50;56.30
2439;DHT22;14509;47.992;7.848;2022-11-20T18:35:25;10.50;56.60
2439;DHT22;14509;47.992;7.848;2022-11-20T18:37:28;10.50;56.50
2439;DHT22;14509;47.992;7.848;2022-11-20T18:39:33;10.30;57.10
2439;DHT22;14509;47.992;7.848;2022-11-20T18:41:36;10.30;57.30
2439;DHT22;14509;47.992;7.848;2022-11-20T18:43:55;10.30;57.50
2439;DHT22;14509;47.992;7.848;2022-11-20T18:46:15;10.40;57.80
2439;DHT22;14509;47.992;7.848;2022-11-20T18:48:19;10.50;57.90
2439;DHT22;14509;47.992;7.848;2022-11-20T18:50:21;10.60;57.50
2439;DHT22;14509;47.992;7.848;2022-11-20T18:52:24;10.80;57.10
2439;DHT22;14509;47.992;7.848;2022-11-20T18:54:27;11.00;57.00
2439;DHT22;14509;47.992;7.848;2022-11-20T18:56:30;10.70;56.40
2439;DHT22;14509;47.992;7.848;2022-11-20T18:58:34;11.00;56.50
2439;DHT22;14509;47.992;7.848;2022-11-20T19:00:36;10.70;56.20
2439;DHT22;14509;47.992;7.848;2022-11-20T19:02:38;10.70;56.10
2439;DHT22;14509;47.992;7.848;2022-11-20T19:04:42;10.70;56.20
2439;DHT22;14509;47.992;7.848;2022-11-20T19:06:45;10.70;56.40
2439;DHT22;14509;47.992;7.848;2022-11-20T19:08:52;10.80;56.60
2439;DHT22;14509;47.992;7.848;2022-11-20T19:10:54;10.70;56.70
2439;DHT22;14509;47.992;7.848;2022-11-20T19:13:07;10.70;56.10
2439;DHT22;14509;47.992;7.848;2022-11-20T19:15:09;10.60;55.90
2439;DHT22;14509;47.992;7.848;2022-11-20T19:17:12;10.50;56.10
2439;DHT22;14509;47.992;7.848;2022-11-20T19:19:14;10.50;56.40
2439;DHT22;14509;47.992;7.848;2022-11-20T19:21:19;10.60;56.60
2439;DHT22;14509;47.992;7.848;2022-11-20T19:23:21;10.40;56.60
2439;DHT22;14509;47.992;7.848;2022-11-20T19:25:23;10.40;56.70
2439;DHT22;14509;47.992;7.848;2022-11-20T19:27:25;10.40;56.80
2439;DHT22;14509;47.992;7.848;2022-11-20T19:29:30;10.40;56.90
2439;DHT22;14509;47.992;7.848;2022-11-20T19:31:32;10.40;57.10
2439;DHT22;14509;47.992;7.848;2022-11-20T19:33:34;10.40;57.10
2439;DHT22;14509;47.992;7.848;2022-11-20T19:35:37;10.40;57.20
2439;DHT22;14509;47.992;7.848;2022-11-20T19:37:38;10.40;57.00
2439;DHT22;14509;47.992;7.848;2022-11-20T19:39:40;10.50;57.00
2439;DHT22;14509;47.992;7.848;2022-11-20T19:41:42;10.40;57.60
2439;DHT22;14509;47.992;7.848;2022-11-20T19:43:44;10.40;57.00
2439;DHT22;14509;47.992;7.848;2022-11-20T19:45:50;10.40;57.10
2439;DHT22;14509;47.992;7.848;2022-11-20T19:47:52;10.50;57.10
2439;DHT22;14509;47.992;7.848;2022-11-20T19:49:54;10.40;56.90
2439;DHT22;14509;47.992;7.848;2022-11-20T19:51:56;10.40;56.80
2439;DHT22;14509;47.992;7.848;2022-11-20T19:53:58;10.30;56.50
2439;DHT22;14509;47.992;7.848;2022-11-20T19:56:01;10.20;56.90
2439;DHT22;14509;47.992;7.848;2022-11-20T19:58:03;10.30;57.00
2439;DHT22;14509;47.992;7.848;2022-11-20T20:00:06;10.30;56.90
2439;DHT22;14509;47.992;7.848;2022-11-20T20:02:10;10.30;56.60
2439;DHT22;14509;47.992;7.848;2022-11-20T20:04:12;10.30;56.40
2439;DHT22;14509;47.992;7.848;2022-11-20T20:06:16;10.30;56.50
2439;DHT22;14509;47.992;7.848;2022-11-20T20:08:19;10.30;56.60
2439;DHT22;14509;47.992;7.848;2022-11-20T20:10:21;10.30;56.10
2439;DHT22;14509;47.992;7.848;2022-11-20T20:12:23;10.30;55.90
2439;DHT22;14509;47.992;7.848;2022-11-20T20:14:25;10.30;55.80
2439;DHT22;14509;47.992;7.848;2022-11-20T20:16:27;10.30;56.00
2439;DHT22;14509;47.992;7.848;2022-11-20T20:18:30;10.40;55.80
2439;DHT22;14509;47.992;7.848;2022-11-20T20:20:32;10.30;55.80
2439;DHT22;14509;47.992;7.848;2022-11-20T20:22:34;10.40;56.00
2439;DHT22;14509;47.992;7.848;2022-11-20T20:24:36;10.40;56.50
2439;DHT22;14509;47.992;7.848;2022-11-20T20:26:38;10.50;55.70
2439;DHT22;14509;47.992;7.848;2022-11-20T20:28:40;10.60;55.50
2439;DHT22;14509;47.992;7.848;2022-11-20T20:30:42;10.70;55.40
2439;DHT22;14509;47.992;7.848;2022-11-20T20:32:44;10.70;55.10
2439;DHT22;14509;47.992;7.848;2022-11-20T20:34:47;10.70;55.10
2439;DHT22;14509;47.992;7.848;2022-11-20T20:36:49;10.70;55.20
2439;DHT22;14509;47.992;7.848;2022-11-20T20:38:51;10.70;55.50
2439;DHT22;14509;47.992;7.848;2022-11-20T20:40:53;10.80;55.50